createdAt,value
2018-12-11T13:25:19.633Z,28.87
2018-12-11T13:26:17.438Z,28.89
2018-12-11T13:27:06.486Z,28.89
2018-12-11T13:27:44.238Z,28.89
2018-12-11T13:28:22.752Z,28.92
2018-12-11T13:29:00.146Z,28.93
2018-12-11T13:29:37.422Z,28.93
2018-12-11T13:30:28.463Z,28.95
2018-12-11T13:31:18.575Z,28.96
2018-12-11T13:32:10.928Z,28.98
2018-12-11T13:33:02.807Z,28.98
2018-12-11T13:33:55.453Z,29.00
2018-12-11T13:34:43.995Z,28.99
2018-12-11T13:35:20.804Z,29.01
2018-12-11T13:35:57.825Z,29.04
2018-12-11T13:36:34.729Z,29.04
2018-12-11T13:37:16.136Z,29.05
2018-12-11T13:38:15.923Z,29.06
2018-12-11T13:39:05.752Z,29.07
2018-12-11T13:40:00.860Z,29.08
2018-12-11T13:40:59.453Z,29.07
2018-12-11T13:41:47.714Z,29.09
2018-12-11T13:42:40.941Z,29.08
2018-12-11T13:43:18.169Z,29.09
2018-12-11T13:44:09.547Z,29.08
2018-12-11T13:44:59.618Z,29.09
2018-12-11T13:45:48.577Z,29.08
2018-12-11T13:46:42.524Z,29.09
2018-12-11T13:47:29.216Z,29.08
2018-12-11T13:48:23.391Z,29.07
2018-12-11T13:49:13.094Z,29.06
2018-12-11T13:50:02.820Z,29.00
2018-12-11T13:50:40.755Z,29.05
2018-12-11T13:51:22.284Z,29.05
2018-12-11T13:52:08.543Z,29.01
2018-12-11T13:52:56.371Z,29.06
2018-12-11T13:53:44.844Z,29.07
2018-12-11T13:54:34.289Z,29.08
2018-12-11T13:55:24.840Z,29.08
2018-12-11T13:56:16.680Z,29.09
2018-12-11T13:56:59.433Z,29.07
2018-12-11T13:57:48.838Z,29.06
2018-12-11T13:58:38.523Z,29.06
2018-12-11T13:59:29.425Z,29.05
2018-12-11T14:00:23.837Z,29.04
2018-12-11T14:01:13.386Z,29.02
2018-12-11T14:01:59.845Z,29.01
2018-12-11T14:02:52.181Z,29.01
2018-12-11T14:03:41.687Z,28.99
2018-12-11T14:04:31.236Z,29.00
2018-12-11T14:05:12.115Z,29.00
2018-12-11T14:06:00.040Z,29.00
2018-12-11T14:06:50.717Z,29.00
2018-12-11T14:07:38.415Z,29.01
2018-12-11T14:08:28.435Z,29.01
2018-12-11T14:09:18.330Z,29.02
2018-12-11T14:10:08.144Z,29.03
2018-12-11T14:10:59.691Z,29.03
2018-12-11T14:11:57.422Z,29.02
2018-12-11T14:12:48.593Z,29.02
2018-12-11T14:13:42.227Z,29.02
2018-12-11T14:14:26.300Z,29.02
2018-12-11T14:15:03.782Z,28.99
2018-12-11T14:15:41.112Z,28.99
2018-12-11T14:16:18.371Z,28.99
2018-12-11T14:16:55.464Z,28.98
2018-12-11T14:17:32.746Z,28.96
2018-12-11T14:18:10.857Z,28.96
2018-12-11T14:18:56.876Z,28.96
2018-12-11T14:19:51.304Z,28.96
2018-12-11T14:20:40.666Z,28.95
2018-12-11T14:21:33.927Z,28.95
2018-12-11T14:22:25.317Z,28.94
2018-12-11T14:23:18.306Z,28.94
2018-12-11T14:23:55.564Z,28.94
2018-12-11T14:24:39.527Z,28.95
2018-12-11T14:25:27.276Z,28.95
2018-12-11T14:26:16.535Z,28.94
2018-12-11T14:27:08.265Z,28.94
2018-12-11T14:27:54.411Z,28.95
2018-12-11T14:28:42.822Z,28.95
2018-12-11T14:29:29.281Z,28.94
2018-12-11T14:30:10.887Z,28.94
2018-12-11T14:30:48.175Z,28.94
2018-12-11T14:31:36.972Z,28.93
2018-12-11T14:32:27.917Z,28.93
2018-12-11T14:33:21.042Z,28.92
2018-12-11T14:34:09.551Z,28.92
2018-12-11T14:34:58.968Z,28.91
2018-12-11T14:35:48.122Z,28.90
2018-12-11T14:36:25.197Z,28.90
2018-12-11T14:37:02.398Z,28.90
2018-12-11T14:37:39.485Z,28.88
2018-12-11T14:38:16.414Z,28.89
2018-12-11T14:38:53.357Z,28.89
2018-12-11T14:39:31.321Z,28.88
2018-12-11T14:40:08.668Z,28.89
2018-12-11T14:40:45.431Z,28.86
2018-12-11T14:41:22.326Z,28.85
2018-12-11T14:41:59.271Z,28.85
2018-12-11T14:42:36.141Z,28.86
2018-12-11T14:43:17.338Z,28.84
2018-12-11T14:43:56.893Z,28.85
2018-12-11T14:44:35.169Z,28.85
2018-12-11T14:45:15.472Z,28.85
2018-12-11T14:45:54.852Z,28.84
2018-12-11T14:46:32.731Z,28.83
2018-12-11T14:47:11.818Z,28.85
2018-12-11T14:47:51.766Z,28.84
2018-12-11T14:48:31.738Z,28.86
2018-12-11T14:49:10.070Z,28.86
2018-12-11T14:49:49.064Z,28.87
2018-12-11T14:50:26.815Z,28.87
2018-12-11T14:51:04.504Z,28.87
2018-12-11T14:51:42.601Z,28.87
2018-12-11T14:52:20.074Z,28.88
2018-12-11T14:52:57.493Z,28.88
2018-12-11T14:53:37.141Z,28.88
2018-12-11T14:54:14.339Z,28.87
2018-12-11T14:54:57.372Z,28.88
2018-12-11T14:55:34.483Z,28.86
2018-12-11T14:56:11.906Z,28.85
2018-12-11T14:56:48.908Z,28.86
2018-12-11T14:57:30.968Z,28.83
2018-12-11T14:58:05.184Z,28.82
2018-12-11T14:58:42.133Z,28.82
2018-12-11T14:59:18.999Z,28.83
2018-12-11T14:59:55.857Z,28.82
2018-12-11T15:00:32.958Z,28.80
2018-12-11T15:01:11.279Z,28.81
2018-12-11T15:01:54.093Z,28.81
2018-12-11T15:04:09.942Z,28.80
2018-12-11T15:04:54.224Z,28.80
2018-12-11T15:05:42.857Z,28.79
2018-12-11T15:06:26.952Z,28.79
2018-12-11T15:07:10.686Z,28.78
2018-12-11T15:07:57.081Z,28.78
2018-12-11T15:08:48.193Z,28.78
2018-12-11T15:09:39.462Z,28.74
2018-12-11T15:11:15.648Z,28.71
2018-12-11T15:11:52.821Z,28.70
2018-12-11T15:12:29.663Z,28.70
2018-12-11T15:13:06.569Z,28.70
2018-12-11T15:13:43.940Z,28.70
2018-12-11T15:14:23.777Z,28.69
2018-12-11T15:15:06.342Z,28.68
2018-12-11T15:15:46.841Z,28.67
2018-12-11T15:16:24.333Z,28.67
2018-12-11T15:17:01.808Z,28.66
2018-12-11T15:17:38.622Z,28.67
2018-12-11T15:18:15.433Z,28.66
2018-12-11T15:18:54.404Z,28.68
2018-12-11T15:19:32.281Z,28.68
2018-12-11T15:20:10.672Z,28.68
2018-12-11T15:20:47.828Z,28.67
2018-12-11T15:21:24.812Z,28.68
2018-12-11T15:22:01.646Z,28.69
2018-12-11T15:22:39.200Z,28.69
2018-12-11T15:23:16.205Z,28.69
2018-12-11T15:23:53.152Z,28.70
2018-12-11T15:24:30.165Z,28.70
2018-12-11T15:25:07.325Z,28.71
2018-12-11T15:25:44.566Z,28.72
2018-12-11T15:26:21.477Z,28.71
2018-12-11T15:26:58.478Z,28.72
2018-12-11T15:27:35.430Z,28.74
2018-12-11T15:28:12.252Z,28.74
2018-12-11T15:28:49.075Z,28.74
2018-12-11T15:29:25.919Z,28.75
2018-12-11T15:30:02.724Z,28.74
2018-12-11T15:30:44.140Z,28.75
2018-12-11T15:31:20.989Z,28.75
2018-12-11T15:31:58.748Z,28.75
2018-12-11T15:32:35.619Z,28.76
2018-12-11T15:33:12.488Z,28.76
2018-12-11T15:33:49.485Z,28.76
2018-12-11T15:34:26.652Z,28.77
2018-12-11T15:35:03.847Z,28.77
2018-12-11T15:35:40.792Z,28.77
2018-12-11T15:36:18.417Z,28.78
2018-12-11T15:36:55.279Z,28.77
2018-12-11T15:37:32.137Z,28.76
2018-12-11T15:38:09.026Z,28.77
2018-12-11T15:38:45.849Z,28.77
2018-12-11T15:39:22.749Z,28.76
2018-12-11T15:39:59.597Z,28.76
2018-12-11T15:40:36.423Z,28.77
2018-12-11T15:41:13.270Z,28.77
2018-12-11T15:41:50.113Z,28.77
2018-12-11T15:42:26.835Z,28.78
2018-12-11T15:43:03.852Z,28.78
2018-12-11T15:43:40.870Z,28.78
2018-12-11T15:44:19.002Z,28.77
2018-12-11T15:44:55.950Z,28.77
2018-12-11T15:45:33.065Z,28.78
2018-12-11T15:46:10.948Z,28.78
2018-12-11T15:46:48.597Z,28.79
2018-12-11T15:47:32.182Z,28.78
2018-12-11T15:48:14.625Z,28.77
2018-12-11T15:48:54.236Z,28.76
2018-12-11T15:49:33.293Z,28.76
2018-12-11T15:50:17.013Z,28.74
2018-12-11T15:50:58.541Z,28.74
2018-12-11T15:51:45.335Z,28.74
2018-12-11T15:52:24.167Z,28.75
2018-12-11T15:53:05.358Z,28.74
2018-12-11T15:53:51.347Z,28.74
2018-12-11T15:54:35.574Z,28.73
2018-12-11T15:55:17.407Z,28.72
2018-12-11T15:56:00.439Z,28.73
2018-12-11T15:56:47.389Z,28.72
2018-12-11T15:57:31.045Z,28.72
2018-12-11T15:58:11.553Z,28.71
2018-12-11T15:58:50.211Z,28.71
2018-12-11T15:59:31.571Z,28.71
2018-12-11T16:00:10.693Z,28.70
2018-12-11T16:00:54.608Z,28.70
2018-12-11T16:01:32.399Z,28.70
2018-12-11T16:02:10.369Z,28.71
2018-12-11T16:02:51.423Z,28.70
2018-12-11T16:03:31.720Z,28.69
2018-12-11T16:04:14.721Z,28.68
2018-12-11T16:04:52.839Z,28.68
2018-12-11T16:05:36.217Z,28.69
2018-12-11T16:06:15.872Z,28.69
2018-12-11T16:06:55.117Z,28.68
2018-12-11T16:07:35.353Z,28.67
2018-12-11T16:11:31.242Z,28.59
2018-12-11T16:12:09.403Z,28.59
2018-12-11T16:12:49.700Z,28.59
2018-12-11T16:13:29.450Z,28.58
2018-12-11T16:14:12.689Z,28.57
2018-12-11T16:14:52.875Z,28.56
2018-12-11T16:15:30.507Z,28.57
2018-12-11T16:16:08.918Z,28.57
2018-12-11T16:16:49.289Z,28.57
2018-12-11T16:17:27.962Z,28.58
2018-12-11T16:18:08.694Z,28.57
2018-12-11T16:18:49.706Z,28.58
2018-12-11T16:19:32.608Z,28.59
2018-12-11T16:21:12.679Z,28.56
2018-12-11T16:21:50.075Z,28.57
2018-12-11T16:22:27.350Z,28.55
2018-12-11T16:23:04.675Z,28.54
2018-12-11T16:23:49.599Z,28.54
2018-12-11T16:24:27.132Z,28.54
2018-12-11T16:25:04.338Z,28.54
2018-12-11T16:25:42.602Z,28.53
2018-12-11T16:26:24.437Z,28.54
2018-12-11T16:27:01.458Z,28.53
2018-12-11T16:27:39.120Z,28.54
2018-12-11T16:28:17.149Z,28.54
2018-12-11T16:28:59.114Z,28.54
2018-12-11T16:29:36.866Z,28.53
2018-12-11T16:30:16.477Z,28.54
2018-12-11T16:30:54.244Z,28.54
2018-12-11T16:31:36.578Z,28.55
2018-12-11T16:32:13.983Z,28.56
2018-12-11T16:32:57.716Z,28.57
2018-12-11T16:33:39.847Z,28.55
2018-12-11T16:34:23.739Z,28.55
2018-12-11T16:35:07.584Z,28.55
2018-12-11T16:35:45.403Z,28.55
2018-12-11T16:36:22.899Z,28.57
2018-12-11T16:37:01.722Z,28.56
2018-12-11T16:37:41.037Z,28.56
2018-12-11T16:38:19.041Z,28.57
2018-12-11T16:39:00.355Z,28.57
2018-12-11T16:39:43.815Z,28.56
2018-12-11T16:40:26.302Z,28.57
2018-12-11T16:41:04.608Z,28.56
2018-12-11T16:41:43.893Z,28.55
2018-12-11T16:42:24.779Z,28.54
2018-12-11T16:43:01.771Z,28.54
2018-12-11T16:43:39.033Z,28.53
2018-12-11T16:44:15.882Z,28.54
2018-12-11T16:44:53.610Z,28.53
2018-12-11T16:45:30.541Z,28.54
2018-12-11T16:46:07.470Z,28.54
2018-12-11T16:46:45.053Z,28.54
2018-12-11T16:47:21.913Z,28.55
2018-12-11T16:48:06.968Z,28.54
2018-12-11T16:48:45.432Z,28.54
2018-12-11T16:49:24.041Z,28.55
2018-12-11T16:50:18.103Z,28.56
2018-12-11T16:53:53.296Z,28.56
2018-12-11T16:54:30.166Z,28.50
2018-12-11T16:55:07.124Z,28.50
2018-12-11T16:55:43.952Z,28.50
2018-12-11T16:56:20.841Z,28.51
2018-12-11T16:56:57.808Z,28.50
2018-12-11T16:57:34.595Z,28.50
2018-12-11T16:58:11.547Z,28.51
2018-12-11T16:58:48.460Z,28.50
2018-12-11T16:59:25.407Z,28.51
2018-12-11T17:00:02.285Z,28.49
2018-12-11T17:00:39.325Z,28.51
2018-12-11T17:01:16.352Z,28.51
2018-12-11T17:01:53.180Z,28.51
2018-12-11T17:02:30.091Z,28.52
2018-12-11T17:03:07.049Z,28.51
2018-12-11T17:03:44.118Z,28.50
2018-12-11T17:04:20.926Z,28.50
2018-12-11T17:04:57.853Z,28.52
2018-12-11T17:05:34.824Z,28.50
2018-12-11T17:06:11.716Z,28.52
2018-12-11T17:06:48.576Z,28.53
2018-12-11T17:07:25.666Z,28.51
2018-12-11T17:08:02.597Z,28.52
2018-12-11T17:08:39.445Z,28.52
2018-12-11T17:09:19.580Z,28.53
2018-12-11T17:09:56.413Z,28.54
2018-12-11T17:10:33.424Z,28.54
2018-12-11T17:11:10.248Z,28.54
2018-12-11T17:11:47.022Z,28.54
2018-12-11T17:12:23.815Z,28.53
2018-12-11T17:13:00.725Z,28.53
2018-12-11T17:13:37.574Z,28.54
2018-12-11T17:14:15.378Z,28.52
2018-12-11T17:14:58.644Z,28.53
2018-12-11T17:15:35.861Z,28.53
2018-12-11T17:16:12.886Z,28.53
2018-12-11T17:16:49.680Z,28.53
2018-12-11T17:17:26.649Z,28.51
2018-12-11T17:18:03.507Z,28.51
2018-12-11T17:18:41.829Z,28.50
2018-12-11T17:19:18.856Z,28.50
2018-12-11T17:19:55.824Z,28.50
2018-12-11T17:20:32.941Z,28.50
2018-12-11T17:21:09.909Z,28.50
2018-12-11T17:21:47.087Z,28.50
2018-12-11T17:22:24.218Z,28.49
2018-12-11T17:23:01.211Z,28.49
2018-12-11T17:23:37.979Z,28.48
2018-12-11T17:24:14.848Z,28.48
2018-12-11T17:24:51.708Z,28.48
2018-12-11T17:25:28.598Z,28.48
2018-12-11T17:26:06.481Z,28.48
2018-12-11T17:26:43.328Z,28.48
2018-12-11T17:27:20.152Z,28.49
2018-12-11T17:27:56.968Z,28.48
2018-12-11T17:28:33.802Z,28.48
2018-12-11T17:29:10.601Z,28.47
2018-12-11T17:29:47.449Z,28.48
2018-12-11T17:30:24.217Z,28.47
2018-12-11T17:31:01.168Z,28.47
2018-12-11T17:31:38.269Z,28.48
2018-12-11T17:32:15.111Z,28.48
2018-12-11T17:32:52.065Z,28.48
2018-12-11T17:33:28.920Z,28.48
2018-12-11T17:34:05.933Z,28.48
2018-12-11T17:34:42.890Z,28.49
2018-12-11T17:35:19.858Z,28.50
2018-12-11T17:35:56.783Z,28.49
2018-12-11T17:36:33.642Z,28.50
2018-12-11T17:37:10.698Z,28.48
2018-12-11T17:37:47.504Z,28.49
2018-12-11T17:38:24.397Z,28.50
2018-12-11T17:39:01.113Z,28.49
2018-12-11T17:39:38.106Z,28.48
2018-12-11T17:40:14.913Z,28.49
2018-12-11T17:40:51.695Z,28.48
2018-12-11T17:41:28.588Z,28.49
2018-12-11T17:42:05.464Z,28.49
2018-12-11T17:42:42.336Z,28.48
2018-12-11T17:43:19.217Z,28.48
2018-12-11T17:43:56.017Z,28.47
2018-12-11T17:44:33.968Z,28.47
2018-12-11T17:45:11.641Z,28.46
2018-12-11T17:45:48.578Z,28.48
2018-12-11T17:46:25.444Z,28.47
2018-12-11T17:47:02.294Z,28.46
2018-12-11T17:47:39.103Z,28.47
2018-12-11T17:48:16.049Z,28.47
2018-12-11T17:48:52.939Z,28.47
2018-12-11T17:49:29.700Z,28.47
2018-12-11T17:50:07.276Z,28.46
2018-12-11T17:50:44.681Z,28.46
2018-12-11T17:51:21.523Z,28.46
2018-12-11T17:51:58.385Z,28.45
2018-12-11T17:52:35.352Z,28.46
2018-12-11T17:53:12.239Z,28.45
2018-12-11T17:53:49.243Z,28.45
2018-12-11T17:54:26.084Z,28.43
2018-12-11T17:55:02.934Z,28.42
2018-12-11T17:55:39.649Z,28.43
2018-12-11T17:56:16.443Z,28.43
2018-12-11T17:56:53.745Z,28.42
2018-12-11T17:57:30.600Z,28.41
2018-12-11T17:58:07.493Z,28.40
2018-12-11T17:58:44.455Z,28.40
2018-12-11T17:59:21.379Z,28.41
2018-12-11T17:59:58.289Z,28.40
2018-12-11T18:00:35.164Z,28.39
2018-12-11T18:01:12.281Z,28.40
2018-12-11T18:01:52.296Z,28.37
2018-12-11T18:02:33.600Z,28.36
2018-12-11T18:03:10.546Z,28.36
2018-12-11T18:03:47.385Z,28.34
2018-12-11T18:04:24.265Z,28.33
2018-12-11T18:05:01.105Z,28.34
2018-12-11T18:05:38.153Z,28.33
2018-12-11T18:06:14.977Z,28.33
2018-12-11T18:06:51.855Z,28.34
2018-12-11T18:07:28.849Z,28.33
2018-12-11T18:08:05.693Z,28.32
2018-12-11T18:08:42.577Z,28.34
2018-12-11T18:09:19.476Z,28.33
2018-12-11T18:09:56.296Z,28.34
2018-12-11T18:10:33.124Z,28.35
2018-12-11T18:11:09.923Z,28.34
2018-12-11T18:11:46.810Z,28.33
2018-12-11T18:12:23.625Z,28.33
2018-12-11T18:13:00.495Z,28.33
2018-12-11T18:13:37.312Z,28.33
2018-12-11T18:14:14.287Z,28.33
2018-12-11T18:14:51.384Z,28.32
2018-12-11T18:15:28.361Z,28.32
2018-12-11T18:16:05.166Z,28.32
2018-12-11T18:16:42.059Z,28.32
2018-12-11T18:17:18.856Z,28.32
2018-12-11T18:17:57.714Z,28.32
2018-12-11T18:18:34.481Z,28.32
2018-12-11T18:19:11.416Z,28.31
2018-12-11T18:19:48.270Z,28.32
2018-12-11T18:20:25.297Z,28.31
2018-12-11T18:21:02.034Z,28.32
2018-12-11T18:21:38.965Z,28.32
2018-12-11T18:22:15.812Z,28.30
2018-12-11T18:22:52.841Z,28.32
2018-12-11T18:23:29.934Z,28.31
2018-12-11T18:24:06.799Z,28.32
2018-12-11T18:24:43.694Z,28.31
2018-12-11T18:25:20.554Z,28.31
2018-12-11T18:25:57.358Z,28.31
2018-12-11T18:26:34.233Z,28.31
2018-12-11T18:27:11.226Z,28.32
2018-12-11T18:27:48.116Z,28.32
2018-12-11T18:28:24.974Z,28.31
2018-12-11T18:29:01.904Z,28.32
2018-12-11T18:29:38.687Z,28.31
2018-12-11T18:30:15.437Z,28.31
2018-12-11T18:30:52.324Z,28.30
2018-12-11T18:31:29.077Z,28.30
2018-12-11T18:32:05.981Z,28.28
2018-12-11T18:32:44.601Z,28.28
2018-12-11T18:33:21.536Z,28.28
2018-12-11T18:33:58.673Z,28.27
2018-12-11T18:34:39.454Z,28.26
2018-12-11T18:35:18.488Z,28.26
2018-12-11T18:35:55.522Z,28.26
2018-12-11T18:36:32.365Z,28.25
2018-12-11T18:37:09.412Z,28.25
2018-12-11T18:37:46.227Z,28.23
2018-12-11T18:38:23.254Z,28.23
2018-12-11T18:39:00.093Z,28.23
2018-12-11T18:39:36.995Z,28.23
2018-12-11T18:40:14.019Z,28.23
2018-12-11T18:40:50.881Z,28.23
2018-12-11T18:41:27.761Z,28.24
2018-12-11T18:42:04.730Z,28.23
2018-12-11T18:42:41.543Z,28.24
2018-12-11T18:43:19.209Z,28.25
2018-12-11T18:43:56.026Z,28.25
2018-12-11T18:44:32.908Z,28.25
2018-12-11T18:45:10.442Z,28.26
2018-12-11T18:45:47.293Z,28.26
2018-12-11T18:46:24.113Z,28.28
2018-12-11T18:47:00.876Z,28.27
2018-12-11T18:47:37.783Z,28.28
2018-12-11T18:48:14.633Z,28.29
2018-12-11T18:48:51.637Z,28.29
2018-12-11T18:49:28.494Z,28.29
2018-12-11T18:50:05.395Z,28.30
2018-12-11T18:50:42.165Z,28.32
2018-12-11T18:51:19.030Z,28.32
2018-12-11T18:51:55.959Z,28.33
2018-12-11T18:52:33.018Z,28.33
2018-12-11T18:53:09.873Z,28.33
2018-12-11T18:53:46.748Z,28.34
2018-12-11T18:54:23.600Z,28.34
2018-12-11T18:55:00.389Z,28.36
2018-12-11T18:55:37.510Z,28.36
2018-12-11T18:56:14.300Z,28.38
2018-12-11T18:56:51.105Z,28.39
2018-12-11T18:57:27.862Z,28.40
2018-12-11T18:58:04.915Z,28.40
2018-12-11T18:58:42.837Z,28.39
2018-12-11T18:59:19.722Z,28.41
2018-12-11T18:59:56.589Z,28.42
2018-12-11T19:00:33.478Z,28.42
2018-12-11T19:01:10.634Z,28.44
2018-12-11T19:01:47.844Z,28.44
2018-12-11T19:02:24.721Z,28.45
2018-12-11T19:03:01.595Z,28.44
2018-12-11T19:03:38.765Z,28.44
2018-12-11T19:04:15.552Z,28.45
2018-12-11T19:04:52.532Z,28.45
2018-12-11T19:05:29.442Z,28.46
2018-12-11T19:06:06.277Z,28.46
2018-12-11T19:06:43.085Z,28.46
2018-12-11T19:07:19.999Z,28.47
2018-12-11T19:07:56.872Z,28.46
2018-12-11T19:08:33.818Z,28.45
2018-12-11T19:09:10.762Z,28.46
2018-12-11T19:09:47.494Z,28.45
2018-12-11T19:10:24.500Z,28.45
2018-12-11T19:11:01.453Z,28.45
2018-12-11T19:11:38.329Z,28.44
2018-12-11T19:12:15.270Z,28.45
2018-12-11T19:12:52.038Z,28.44
2018-12-11T19:13:28.932Z,28.44
2018-12-11T19:14:05.802Z,28.43
2018-12-11T19:14:42.736Z,28.44
2018-12-11T19:15:19.641Z,28.44
2018-12-11T19:15:56.656Z,28.43
2018-12-11T19:16:33.498Z,28.44
2018-12-11T19:17:10.226Z,28.45
2018-12-11T19:17:47.190Z,28.45
2018-12-11T19:18:24.109Z,28.45
2018-12-11T19:19:01.074Z,28.44
2018-12-11T19:19:37.986Z,28.45
2018-12-11T19:20:14.737Z,28.44
2018-12-11T19:20:51.685Z,28.44
2018-12-11T19:21:28.474Z,28.44
2018-12-11T19:22:05.297Z,28.44
2018-12-11T19:22:42.275Z,28.43
2018-12-11T19:23:42.786Z,28.43
2018-12-11T19:24:31.408Z,28.40
2018-12-11T19:25:10.042Z,28.39
2018-12-11T19:25:47.026Z,28.39
2018-12-11T19:26:23.954Z,28.39
2018-12-11T19:27:00.770Z,28.39
2018-12-11T19:27:37.765Z,28.38
2018-12-11T19:28:14.603Z,28.36
2018-12-11T19:28:51.425Z,28.36
2018-12-11T19:29:28.285Z,28.36
2018-12-11T19:30:05.217Z,28.35
2018-12-11T19:30:42.085Z,28.35
2018-12-11T19:31:18.809Z,28.35
2018-12-11T19:31:55.692Z,28.35
2018-12-11T19:32:32.558Z,28.36
2018-12-11T19:33:09.496Z,28.36
2018-12-11T19:33:46.358Z,28.36
2018-12-11T19:34:23.151Z,28.36
2018-12-11T19:34:59.949Z,28.36
2018-12-11T19:35:36.635Z,28.37
2018-12-11T19:36:13.454Z,28.36
2018-12-11T19:36:50.598Z,28.35
2018-12-11T19:37:27.479Z,28.38
2018-12-11T19:38:04.437Z,28.38
2018-12-11T19:38:41.222Z,28.36
2018-12-11T19:39:18.062Z,28.36
2018-12-11T19:39:54.957Z,28.35
2018-12-11T19:40:31.713Z,28.36
2018-12-11T19:41:08.468Z,28.35
2018-12-11T19:41:45.358Z,28.34
2018-12-11T19:42:22.250Z,28.34
2018-12-11T19:42:59.125Z,28.34
2018-12-11T19:43:36.009Z,28.34
2018-12-11T19:44:12.841Z,28.34
2018-12-11T19:44:49.788Z,28.34
2018-12-11T19:45:26.686Z,28.35
2018-12-11T19:46:03.637Z,28.36
2018-12-11T19:46:40.668Z,28.36
2018-12-11T19:47:17.429Z,28.36
2018-12-11T19:47:54.273Z,28.37
2018-12-11T19:48:31.171Z,28.36
2018-12-11T19:49:08.253Z,28.36
2018-12-11T19:49:45.229Z,28.38
2018-12-11T19:50:22.072Z,28.36
2018-12-11T19:50:58.865Z,28.38
2018-12-11T19:51:35.689Z,28.38
2018-12-11T19:52:12.652Z,28.36
2018-12-11T19:52:49.451Z,28.36
2018-12-11T19:53:26.361Z,28.35
2018-12-11T19:54:03.356Z,28.35
2018-12-11T19:54:40.200Z,28.34
2018-12-11T19:55:17.140Z,28.34
2018-12-11T19:55:53.952Z,28.35
2018-12-11T19:56:31.885Z,28.35
2018-12-11T19:57:08.841Z,28.35
2018-12-11T19:57:45.601Z,28.35
2018-12-11T19:58:23.048Z,28.34
2018-12-11T19:58:59.969Z,28.35
2018-12-11T19:59:36.828Z,28.35
2018-12-11T20:00:13.713Z,28.33
2018-12-11T20:00:50.613Z,28.34
2018-12-11T20:01:27.729Z,28.34
2018-12-11T20:02:04.575Z,28.34
2018-12-11T20:02:41.473Z,28.34
2018-12-11T20:03:18.356Z,28.34
2018-12-11T20:03:55.189Z,28.34
2018-12-11T20:04:31.938Z,28.35
2018-12-11T20:05:09.068Z,28.36
2018-12-11T20:05:46.110Z,28.39
2018-12-11T20:06:22.897Z,28.39
2018-12-11T20:06:59.953Z,28.40
2018-12-11T20:07:36.892Z,28.40
2018-12-11T20:08:13.786Z,28.41
2018-12-11T20:08:50.652Z,28.42
2018-12-11T20:09:27.405Z,28.42
2018-12-11T20:10:08.916Z,28.43
2018-12-11T20:10:48.023Z,28.44
2018-12-11T20:11:25.093Z,28.44
2018-12-11T20:12:01.989Z,28.45
2018-12-11T20:12:38.738Z,28.46
2018-12-11T20:13:15.718Z,28.47
2018-12-11T20:13:52.512Z,28.48
2018-12-11T20:14:29.184Z,28.48
2018-12-11T20:15:07.077Z,28.49
2018-12-11T20:15:43.937Z,28.48
2018-12-11T20:16:20.867Z,28.48
2018-12-11T20:16:57.872Z,28.49
2018-12-11T20:17:34.656Z,28.50
2018-12-11T20:18:13.063Z,28.51
2018-12-11T20:18:50.047Z,28.51
2018-12-11T20:19:26.837Z,28.52
2018-12-11T20:20:03.842Z,28.51
2018-12-11T20:20:40.715Z,28.52
2018-12-11T20:21:17.573Z,28.52
2018-12-11T20:21:54.333Z,28.53
2018-12-11T20:22:31.168Z,28.51
2018-12-11T20:23:07.986Z,28.49
2018-12-11T20:23:45.163Z,28.49
2018-12-11T20:24:21.960Z,28.49
2018-12-11T20:24:58.780Z,28.48
2018-12-11T20:25:35.644Z,28.48
2018-12-11T20:26:12.407Z,28.48
2018-12-11T20:26:50.440Z,28.48
2018-12-11T20:27:27.322Z,28.46
2018-12-11T20:28:04.136Z,28.45
2018-12-11T20:28:42.243Z,28.44
2018-12-11T20:29:19.958Z,28.44
2018-12-11T20:29:56.784Z,28.44
2018-12-11T20:30:34.427Z,28.43
2018-12-11T20:31:11.349Z,28.42
2018-12-11T20:31:48.226Z,28.41
2018-12-11T20:32:25.046Z,28.41
2018-12-11T20:33:01.976Z,28.41
2018-12-11T20:33:39.157Z,28.39
2018-12-11T20:34:15.985Z,28.38
2018-12-11T20:34:52.822Z,28.36
2018-12-11T20:35:29.852Z,28.38
2018-12-11T20:36:06.889Z,28.36
2018-12-11T20:36:44.025Z,28.35
2018-12-11T20:37:21.006Z,28.33
2018-12-11T20:37:57.864Z,28.34
2018-12-11T20:38:34.724Z,28.33
2018-12-11T20:39:11.634Z,28.34
2018-12-11T20:39:48.598Z,28.33
2018-12-11T20:40:25.640Z,28.32
2018-12-11T20:41:02.469Z,28.30
2018-12-11T20:41:39.383Z,28.30
2018-12-11T20:42:16.149Z,28.31
2018-12-11T20:42:53.083Z,28.31
2018-12-11T20:43:30.226Z,28.30
2018-12-11T20:44:07.164Z,28.30
2018-12-11T20:44:44.079Z,28.29
2018-12-11T20:45:21.190Z,28.25
2018-12-11T20:45:58.098Z,28.25
2018-12-11T20:46:34.950Z,28.22
2018-12-11T20:47:11.754Z,28.20
2018-12-11T20:47:48.652Z,28.19
2018-12-11T20:48:25.514Z,28.17
2018-12-11T20:49:02.379Z,28.16
2018-12-11T20:49:39.232Z,28.16
2018-12-11T20:50:16.329Z,28.15
2018-12-11T20:50:53.207Z,28.15
2018-12-11T20:51:30.079Z,28.14
2018-12-11T20:52:07.094Z,28.13
2018-12-11T20:52:43.920Z,28.13
2018-12-11T20:53:20.770Z,28.13
2018-12-11T20:53:57.700Z,28.12
2018-12-11T20:54:34.546Z,28.11
2018-12-11T20:55:11.404Z,28.11
2018-12-11T20:55:48.162Z,28.09
2018-12-11T20:56:24.991Z,28.09
2018-12-11T20:57:01.724Z,28.08
2018-12-11T20:57:38.735Z,28.07
2018-12-11T20:58:15.665Z,28.06
2018-12-11T20:58:52.673Z,28.06
2018-12-11T20:59:29.640Z,28.03
2018-12-11T21:00:07.067Z,28.04
2018-12-11T21:00:43.926Z,28.01
2018-12-11T21:01:20.673Z,27.99
2018-12-11T21:01:57.658Z,27.97
2018-12-11T21:02:34.501Z,27.97
2018-12-11T21:03:11.345Z,27.96
2018-12-11T21:03:48.410Z,27.96
2018-12-11T21:04:25.281Z,27.95
2018-12-11T21:05:02.307Z,27.93
2018-12-11T21:05:39.133Z,27.90
2018-12-11T21:06:15.900Z,27.89
2018-12-11T21:06:52.692Z,27.86
2018-12-11T21:07:29.488Z,27.86
2018-12-11T21:08:06.308Z,27.83
2018-12-11T21:08:43.445Z,27.83
2018-12-11T21:09:21.057Z,27.82
2018-12-11T21:09:57.885Z,27.81
2018-12-11T21:10:34.769Z,27.80
2018-12-11T21:11:11.535Z,27.79
2018-12-11T21:11:48.351Z,27.76
2018-12-11T21:12:25.224Z,27.78
2018-12-11T21:13:02.077Z,27.75
2018-12-11T21:13:38.976Z,27.75
2018-12-11T21:14:15.877Z,27.74
2018-12-11T21:14:52.748Z,27.73
2018-12-11T21:15:29.573Z,27.74
2018-12-11T21:16:10.964Z,27.70
2018-12-11T21:16:45.434Z,27.71
2018-12-11T21:17:22.344Z,27.71
2018-12-11T21:17:59.313Z,27.70
2018-12-11T21:18:36.182Z,27.73
2018-12-11T21:19:13.049Z,27.73
2018-12-11T21:19:49.943Z,27.73
2018-12-11T21:20:26.946Z,27.75
2018-12-11T21:21:03.745Z,27.75
2018-12-11T21:21:40.600Z,27.77
2018-12-11T21:22:18.280Z,27.77
2018-12-11T21:22:55.204Z,27.76
2018-12-11T21:23:31.971Z,27.78
2018-12-11T21:24:08.930Z,27.76
2018-12-11T21:24:45.764Z,27.77
2018-12-11T21:25:22.572Z,27.77
2018-12-11T21:25:59.508Z,27.76
2018-12-11T21:26:36.387Z,27.78
2018-12-11T21:27:13.426Z,27.76
2018-12-11T21:27:50.333Z,27.73
2018-12-11T21:28:27.249Z,27.73
2018-12-11T21:29:04.049Z,27.73
2018-12-11T21:29:40.874Z,27.73
2018-12-11T21:30:17.808Z,27.73
2018-12-11T21:30:54.878Z,27.73
2018-12-11T21:31:31.699Z,27.71
2018-12-11T21:32:08.534Z,27.71
2018-12-11T21:32:45.528Z,27.70
2018-12-11T21:33:23.344Z,27.69
2018-12-11T21:34:00.120Z,27.66
2018-12-11T21:34:37.036Z,27.65
2018-12-11T21:35:13.832Z,27.65
2018-12-11T21:35:50.609Z,27.64
2018-12-11T21:36:27.392Z,27.58
2018-12-11T21:37:05.471Z,27.59
2018-12-11T21:37:42.529Z,27.56
2018-12-11T21:38:19.301Z,27.55
2018-12-11T21:38:56.092Z,27.54
2018-12-11T21:39:33.093Z,27.52
2018-12-11T21:40:10.521Z,27.52
2018-12-11T21:40:47.324Z,27.53
2018-12-11T21:41:24.090Z,27.51
2018-12-11T21:42:01.912Z,27.50
2018-12-11T21:42:38.745Z,27.51
2018-12-11T21:43:15.601Z,27.51
2018-12-11T21:43:52.456Z,27.51
2018-12-11T21:44:29.321Z,27.49
2018-12-11T21:45:06.618Z,27.49
2018-12-11T21:45:43.547Z,27.49
2018-12-11T21:46:20.533Z,27.49
2018-12-11T21:46:58.367Z,27.49
2018-12-11T21:47:35.266Z,27.48
2018-12-11T21:48:12.212Z,27.49
2018-12-11T21:48:49.132Z,27.49
2018-12-11T21:49:25.904Z,27.49
2018-12-11T21:50:02.919Z,27.49
2018-12-11T21:50:39.756Z,27.48
2018-12-11T21:51:16.713Z,27.45
2018-12-11T21:51:53.485Z,27.44
2018-12-11T21:52:30.320Z,27.43
2018-12-11T21:53:07.129Z,27.43
2018-12-11T21:53:43.946Z,27.44
2018-12-11T21:54:20.774Z,27.42
2018-12-11T21:54:57.872Z,27.44